Time;durP1;ratioP1;P1;durP2;ratioP2;P2;SDS_P1;SDS_P2;PMS_P1;PMS_P2;Temp;Humidity;BMP_temperature;BMP_pressure;BME280_temperature;BME280_humidity;BME280_pressure;Samples;Min_cycle;Max_cycle;Signal;HPM_P1;HPM_P2
2024/04/08 00:01:00;;;;;;;16.05;10.45;;;;;;;;;;2212558;26;20000;-81
2024/04/08 00:02:04;;;;;;;16.45;11.40;;;;;;;;;;2200926;26;20595;-81
2024/04/08 00:03:08;;;;;;;15.02;10.68;;;;;;;;;;2201412;26;20001;-83
2024/04/08 00:04:09;;;;;;;17.27;11.68;;;;;;;;;;2189732;26;20013;-83
2024/04/08 00:05:10;;;;;;;14.52;10.98;;;;;;;;;;2184194;26;20117;-80
2024/04/08 00:06:14;;;;;;;14.93;11.13;;;;;;;;;;2200326;26;19997;-82
2024/04/08 00:07:15;;;;;;;13.10;10.52;;;;;;;;;;2201568;26;20701;-82
2024/04/08 00:08:17;;;;;;;17.33;11.38;;;;;;;;;;2202853;26;20001;-82
2024/04/08 00:09:20;;;;;;;14.60;10.88;;;;;;;;;;2203032;26;20677;-82
2024/04/08 00:10:22;;;;;;;18.60;11.90;;;;;;;;;;2208996;26;20001;-82
2024/04/08 00:11:23;;;;;;;17.88;11.43;;;;;;;;;;2216771;26;20469;-82
2024/04/08 00:12:24;;;;;;;17.15;11.85;;;;;;;;;;2212889;26;20131;-82
2024/04/08 00:13:28;;;;;;;17.13;11.07;;;;;;;;;;2207340;26;20021;-82
2024/04/08 00:14:29;;;;;;;16.38;11.32;;;;;;;;;;2199582;26;20082;-83
2024/04/08 00:15:31;;;;;;;15.20;11.45;;;;;;;;;;2201331;26;20019;-82
2024/04/08 00:16:32;;;;;;;18.50;12.55;;;;;;;;;;2201464;26;20028;-81
2024/04/08 00:17:39;;;;;;;17.45;11.63;;;;;;;;;;2199702;26;20006;-81
2024/04/08 00:18:40;;;;;;;15.25;12.73;;;;;;;;;;2200588;26;20001;-82
2024/04/08 00:19:42;;;;;;;19.65;13.07;;;;;;;;;;2202250;26;20009;-82
2024/04/08 00:20:43;;;;;;;14.77;12.40;;;;;;;;;;2194384;26;20435;-83
2024/04/08 00:21:47;;;;;;;16.83;12.52;;;;;;;;;;2189323;26;20138;-82
2024/04/08 00:22:51;;;;;;;17.48;11.52;;;;;;;;;;2164385;26;20494;-82
2024/04/08 00:23:53;;;;;;;20.23;13.02;;;;;;;;;;2197244;26;20017;-83
2024/04/08 00:24:54;;;;;;;19.85;12.70;;;;;;;;;;2203596;26;20020;-81
2024/04/08 00:25:58;;;;;;;17.13;12.15;;;;;;;;;;2206339;26;20016;-83
2024/04/08 00:27:00;;;;;;;18.88;13.00;;;;;;;;;;2195707;26;20064;-80
2024/04/08 00:28:01;;;;;;;19.70;13.65;;;;;;;;;;2215630;26;20046;-81
2024/04/08 00:29:03;;;;;;;19.75;12.85;;;;;;;;;;2202816;26;20011;-80
2024/04/08 00:30:08;;;;;;;18.58;13.18;;;;;;;;;;2196162;26;20002;-81
2024/04/08 00:31:10;;;;;;;19.67;14.35;;;;;;;;;;2183652;26;22433;-81
2024/04/08 00:32:12;;;;;;;15.57;13.35;;;;;;;;;;2180086;26;20017;-80
2024/04/08 00:33:18;;;;;;;17.65;13.73;;;;;;;;;;2185159;26;20242;-85
2024/04/08 00:34:20;;;;;;;18.77;13.48;;;;;;;;;;2191983;26;19997;-80
2024/04/08 00:35:21;;;;;;;15.63;12.95;;;;;;;;;;2201846;26;20021;-80
2024/04/08 00:36:22;;;;;;;19.40;13.27;;;;;;;;;;2200039;26;20013;-81
2024/04/08 00:37:26;;;;;;;21.30;13.70;;;;;;;;;;2200396;26;20015;-80
2024/04/08 00:38:28;;;;;;;16.25;13.27;;;;;;;;;;2201717;26;20426;-80
2024/04/08 00:39:29;;;;;;;21.23;13.73;;;;;;;;;;2199909;26;20001;-80
2024/04/08 00:40:38;;;;;;;18.83;14.07;;;;;;;;;;2205220;26;20005;-80
2024/04/08 00:41:40;;;;;;;17.40;13.93;;;;;;;;;;2213867;26;20016;-81
2024/04/08 00:42:41;;;;;;;18.83;14.52;;;;;;;;;;2213481;26;20075;-80
2024/04/08 00:43:42;;;;;;;18.85;13.77;;;;;;;;;;2204018;26;20013;-81
2024/04/08 00:44:46;;;;;;;19.00;14.48;;;;;;;;;;2203217;26;20006;-81
2024/04/08 00:45:49;;;;;;;19.67;14.50;;;;;;;;;;2199761;26;20051;-81
2024/04/08 00:46:50;;;;;;;17.38;13.20;;;;;;;;;;2202448;26;20028;-81
2024/04/08 00:47:51;;;;;;;17.00;14.18;;;;;;;;;;2200043;26;20017;-81
2024/04/08 00:49:00;;;;;;;18.55;13.68;;;;;;;;;;2197913;26;20436;-81
2024/04/08 00:50:01;;;;;;;19.92;13.57;;;;;;;;;;2215591;26;20111;-80
2024/04/08 00:51:03;;;;;;;17.38;13.00;;;;;;;;;;2214977;26;20000;-80
2024/04/08 00:52:05;;;;;;;18.10;13.40;;;;;;;;;;2214189;26;20016;-80
2024/04/08 00:53:09;;;;;;;19.92;15.02;;;;;;;;;;2214681;26;20000;-80
2024/04/08 00:54:10;;;;;;;19.92;14.90;;;;;;;;;;2215097;26;20097;-81
2024/04/08 00:55:12;;;;;;;21.23;14.35;;;;;;;;;;2210397;26;20458;-80
2024/04/08 00:56:13;;;;;;;19.80;15.35;;;;;;;;;;2185684;26;20012;-80
2024/04/08 00:57:18;;;;;;;20.33;14.35;;;;;;;;;;2184258;26;20016;-82
2024/04/08 00:58:19;;;;;;;18.40;14.18;;;;;;;;;;2200165;26;21523;-81
2024/04/08 00:59:20;;;;;;;21.15;16.13;;;;;;;;;;2202735;26;20178;-80
2024/04/08 01:00:22;;;;;;;18.75;14.48;;;;;;;;;;2200250;26;20006;-81
2024/04/08 01:01:27;;;;;;;21.35;14.85;;;;;;;;;;2201808;26;20016;-80
2024/04/08 01:02:28;;;;;;;19.45;14.85;;;;;;;;;;2201368;26;20879;-80
2024/04/08 01:03:29;;;;;;;21.98;16.33;;;;;;;;;;2198436;26;20017;-80
2024/04/08 01:04:34;;;;;;;20.50;16.23;;;;;;;;;;2195318;26;20947;-80
2024/04/08 01:05:38;;;;;;;17.52;15.48;;;;;;;;;;2196555;26;20025;-80
2024/04/08 01:06:40;;;;;;;19.50;14.95;;;;;;;;;;2201543;26;20013;-80
2024/04/08 01:07:42;;;;;;;19.40;15.40;;;;;;;;;;2200276;26;20009;-81
2024/04/08 01:08:46;;;;;;;18.38;15.15;;;;;;;;;;2198916;26;20024;-82
2024/04/08 01:09:47;;;;;;;19.30;14.95;;;;;;;;;;2200371;26;20544;-80
2024/04/08 01:10:48;;;;;;;20.58;15.52;;;;;;;;;;2200098;26;20624;-80
2024/04/08 01:11:52;;;;;;;18.13;15.25;;;;;;;;;;2200690;26;20001;-83
2024/04/08 01:12:54;;;;;;;21.40;15.82;;;;;;;;;;2202652;26;20362;-83
2024/04/08 01:13:55;;;;;;;18.40;15.43;;;;;;;;;;2201090;26;20019;-82
2024/04/08 01:14:56;;;;;;;18.25;14.88;;;;;;;;;;2201444;26;20025;-82
2024/04/08 01:16:00;;;;;;;21.25;16.13;;;;;;;;;;2198747;26;20520;-82
2024/04/08 01:17:02;;;;;;;20.05;15.30;;;;;;;;;;2215938;26;20015;-82
2024/04/08 01:18:03;;;;;;;23.15;15.80;;;;;;;;;;2214587;26;20012;-82
2024/04/08 01:19:07;;;;;;;17.25;14.57;;;;;;;;;;2215778;26;20076;-82
2024/04/08 01:20:11;;;;;;;19.20;14.52;;;;;;;;;;2201917;26;20005;-82
2024/04/08 01:21:12;;;;;;;20.88;14.93;;;;;;;;;;2199553;26;20008;-82
2024/04/08 01:22:13;;;;;;;19.98;15.10;;;;;;;;;;2201464;26;20009;-82
2024/04/08 01:23:18;;;;;;;17.38;14.30;;;;;;;;;;2200170;26;20005;-83
2024/04/08 01:24:22;;;;;;;19.65;15.05;;;;;;;;;;2200942;26;20082;-82
2024/04/08 01:25:23;;;;;;;20.05;15.23;;;;;;;;;;2199960;26;20017;-80
2024/04/08 01:26:27;;;;;;;18.85;15.73;;;;;;;;;;2199308;26;20010;-81
2024/04/08 01:27:28;;;;;;;17.35;14.30;;;;;;;;;;2200241;26;20052;-79
2024/04/08 01:28:29;;;;;;;19.63;14.60;;;;;;;;;;2205661;26;20004;-82
2024/04/08 01:29:31;;;;;;;16.90;15.18;;;;;;;;;;2211598;26;20082;-82
2024/04/08 01:30:32;;;;;;;18.52;14.68;;;;;;;;;;2214475;26;20004;-82
2024/04/08 01:31:36;;;;;;;19.02;15.10;;;;;;;;;;2205088;26;20005;-82
2024/04/08 01:32:37;;;;;;;21.20;15.30;;;;;;;;;;2199842;26;20588;-82
2024/04/08 01:33:40;;;;;;;19.48;14.77;;;;;;;;;;2199426;26;20427;-82
2024/04/08 01:34:41;;;;;;;22.33;15.27;;;;;;;;;;2196377;26;20021;-82
2024/04/08 01:35:45;;;;;;;17.90;14.63;;;;;;;;;;2196881;26;20020;-79
2024/04/08 01:36:46;;;;;;;19.73;15.20;;;;;;;;;;2198170;26;20316;-80
2024/04/08 01:37:48;;;;;;;21.98;14.90;;;;;;;;;;2197411;26;20009;-82
2024/04/08 01:38:49;;;;;;;19.13;14.85;;;;;;;;;;2199905;26;20012;-81
2024/04/08 01:39:55;;;;;;;20.40;15.75;;;;;;;;;;2200554;26;20005;-82
2024/04/08 01:40:57;;;;;;;17.20;15.25;;;;;;;;;;2198892;26;20005;-81
2024/04/08 01:41:58;;;;;;;17.70;13.95;;;;;;;;;;2202039;26;20009;-82
2024/04/08 01:43:00;;;;;;;19.98;14.48;;;;;;;;;;2200995;26;20020;-81
2024/04/08 01:44:04;;;;;;;20.35;14.63;;;;;;;;;;2199258;26;20006;-80
2024/04/08 01:45:06;;;;;;;21.02;14.95;;;;;;;;;;2201005;26;20082;-80
2024/04/08 01:46:07;;;;;;;20.65;15.32;;;;;;;;;;2202063;26;20373;-82
2024/04/08 01:47:11;;;;;;;22.52;14.95;;;;;;;;;;2199651;26;20020;-82
2024/04/08 01:48:12;;;;;;;22.83;14.73;;;;;;;;;;2202125;26;20401;-82
2024/04/08 01:49:14;;;;;;;21.90;14.90;;;;;;;;;;2200432;26;20013;-82
2024/04/08 01:50:15;;;;;;;18.25;15.02;;;;;;;;;;2201003;26;20079;-82
2024/04/08 01:51:19;;;;;;;18.42;15.32;;;;;;;;;;2199767;26;20020;-82
2024/04/08 01:52:20;;;;;;;22.38;15.30;;;;;;;;;;2195952;26;20016;-81
2024/04/08 01:53:22;;;;;;;20.38;15.80;;;;;;;;;;2199002;26;20020;-82
2024/04/08 01:54:23;;;;;;;23.35;16.17;;;;;;;;;;2198047;26;20020;-82
2024/04/08 01:55:30;;;;;;;20.70;14.73;;;;;;;;;;2198839;26;20473;-83
2024/04/08 01:56:31;;;;;;;19.17;15.48;;;;;;;;;;2202164;26;20406;-82
2024/04/08 01:57:32;;;;;;;23.73;16.92;;;;;;;;;;2199715;26;20074;-83
2024/04/08 01:58:33;;;;;;;19.30;15.13;;;;;;;;;;2203300;26;20055;-82
2024/04/08 01:59:37;;;;;;;19.00;16.17;;;;;;;;;;2200383;26;20518;-81
2024/04/08 02:00:39;;;;;;;19.38;16.23;;;;;;;;;;2204913;26;20016;-82
2024/04/08 02:01:40;;;;;;;20.38;16.35;;;;;;;;;;2200015;26;20024;-82
2024/04/08 02:02:41;;;;;;;22.42;15.10;;;;;;;;;;2201836;26;20040;-83
2024/04/08 02:03:42;;;;;;;20.40;15.52;;;;;;;;;;2204132;26;20417;-83
2024/04/08 02:04:46;;;;;;;19.38;14.73;;;;;;;;;;2200061;26;20099;-82
2024/04/08 02:05:48;;;;;;;20.25;15.13;;;;;;;;;;2201728;26;20005;-82
2024/04/08 02:06:49;;;;;;;21.73;16.13;;;;;;;;;;2204130;26;20418;-81
2024/04/08 02:07:53;;;;;;;23.13;15.85;;;;;;;;;;2201167;26;20101;-80
2024/04/08 02:08:54;;;;;;;20.13;15.60;;;;;;;;;;2202469;26;20064;-80
2024/04/08 02:09:57;;;;;;;18.45;16.05;;;;;;;;;;2201464;26;19997;-82
2024/04/08 02:11:01;;;;;;;19.98;15.02;;;;;;;;;;2215855;26;20345;-82
2024/04/08 02:12:05;;;;;;;20.63;15.10;;;;;;;;;;2213912;26;20023;-82
2024/04/08 02:13:07;;;;;;;17.48;15.07;;;;;;;;;;2212964;26;20000;-79
2024/04/08 02:14:08;;;;;;;21.45;16.42;;;;;;;;;;2200901;26;20452;-80
2024/04/08 02:15:09;;;;;;;23.83;16.50;;;;;;;;;;2202466;26;20019;-81
2024/04/08 02:16:13;;;;;;;20.33;17.20;;;;;;;;;;2205462;26;20005;-83
2024/04/08 02:17:14;;;;;;;20.10;16.10;;;;;;;;;;2198767;26;20037;-82
2024/04/08 02:18:15;;;;;;;20.98;16.08;;;;;;;;;;2202134;26;20073;-82
2024/04/08 02:19:17;;;;;;;18.48;15.65;;;;;;;;;;2198130;26;20091;-81
2024/04/08 02:20:21;;;;;;;21.30;16.90;;;;;;;;;;2205283;26;20475;-81
2024/04/08 02:21:22;;;;;;;21.85;15.95;;;;;;;;;;2204753;26;20466;-82
2024/04/08 02:22:23;;;;;;;16.50;14.50;;;;;;;;;;2205178;26;20426;-82
2024/04/08 02:23:25;;;;;;;20.33;14.70;;;;;;;;;;2204268;26;20020;-81
2024/04/08 02:24:29;;;;;;;20.88;15.73;;;;;;;;;;2204277;26;20016;-81
2024/04/08 02:25:30;;;;;;;17.95;15.50;;;;;;;;;;2202755;26;20073;-81
2024/04/08 02:26:34;;;;;;;21.27;15.68;;;;;;;;;;2203145;26;20464;-82
2024/04/08 02:27:35;;;;;;;22.20;15.82;;;;;;;;;;2200864;26;20005;-82
2024/04/08 02:28:39;;;;;;;20.63;15.35;;;;;;;;;;2197650;26;20100;-83
2024/04/08 02:29:41;;;;;;;20.85;14.93;;;;;;;;;;2199487;26;19997;-82
2024/04/08 02:30:42;;;;;;;22.38;16.42;;;;;;;;;;2201746;26;20531;-82
2024/04/08 02:31:43;;;;;;;23.77;16.60;;;;;;;;;;2201125;26;20488;-82
2024/04/08 02:32:47;;;;;;;24.63;15.93;;;;;;;;;;2204252;26;20030;-82
2024/04/08 02:33:48;;;;;;;21.85;15.65;;;;;;;;;;2200588;26;20016;-82
2024/04/08 02:34:50;;;;;;;19.60;15.30;;;;;;;;;;2214994;26;20009;-82
2024/04/08 02:35:51;;;;;;;23.98;15.95;;;;;;;;;;2216650;26;20012;-83
2024/04/08 02:36:55;;;;;;;22.88;15.20;;;;;;;;;;2215545;26;20017;-83
2024/04/08 02:37:56;;;;;;;19.83;15.13;;;;;;;;;;2216454;26;20020;-82
2024/04/08 02:38:57;;;;;;;22.33;15.00;;;;;;;;;;2218193;26;19996;-81
2024/04/08 02:40:04;;;;;;;20.00;15.52;;;;;;;;;;2216053;26;20461;-78
2024/04/08 02:41:05;;;;;;;18.77;15.57;;;;;;;;;;2205920;26;20306;-81
2024/04/08 02:42:10;;;;;;;20.88;15.35;;;;;;;;;;2203937;26;20010;-82
2024/04/08 02:43:14;;;;;;;22.73;15.95;;;;;;;;;;2201480;26;20020;-82
2024/04/08 02:44:15;;;;;;;20.48;14.18;;;;;;;;;;2199761;26;20009;-82
2024/04/08 02:45:16;;;;;;;20.77;16.08;;;;;;;;;;2202743;26;20000;-82
2024/04/08 02:46:18;;;;;;;23.02;16.23;;;;;;;;;;2200186;26;20017;-81
2024/04/08 02:47:22;;;;;;;19.40;16.00;;;;;;;;;;2202858;26;20028;-82
2024/04/08 02:48:23;;;;;;;20.52;15.93;;;;;;;;;;2203160;26;20001;-82
2024/04/08 02:49:25;;;;;;;20.08;15.75;;;;;;;;;;2200515;26;20340;-81
2024/04/08 02:50:29;;;;;;;21.95;14.98;;;;;;;;;;2203749;26;20012;-82
2024/04/08 02:51:30;;;;;;;17.52;15.32;;;;;;;;;;2200434;26;20523;-81
2024/04/08 02:52:31;;;;;;;19.58;16.08;;;;;;;;;;2199638;26;20088;-82
2024/04/08 02:53:33;;;;;;;19.33;15.80;;;;;;;;;;2204307;26;20021;-83
2024/04/08 02:54:37;;;;;;;20.67;16.00;;;;;;;;;;2203533;26;20664;-80
2024/04/08 02:55:39;;;;;;;21.35;15.90;;;;;;;;;;2211112;26;21087;-82
2024/04/08 02:56:40;;;;;;;20.30;15.48;;;;;;;;;;2214433;26;20019;-82
2024/04/08 02:57:44;;;;;;;21.40;15.95;;;;;;;;;;2213795;26;20012;-80
2024/04/08 02:58:48;;;;;;;23.33;15.88;;;;;;;;;;2214024;26;20105;-82
2024/04/08 02:59:49;;;;;;;22.58;15.88;;;;;;;;;;2216808;26;20006;-82
2024/04/08 03:00:51;;;;;;;19.52;15.65;;;;;;;;;;2214505;26;19997;-82
2024/04/08 03:01:52;;;;;;;22.65;16.80;;;;;;;;;;2217186;26;20431;-81
2024/04/08 03:02:56;;;;;;;21.35;15.38;;;;;;;;;;2216376;26;20020;-80
2024/04/08 03:03:57;;;;;;;24.67;16.92;;;;;;;;;;2214310;26;20037;-82
2024/04/08 03:04:59;;;;;;;20.85;15.07;;;;;;;;;;2219840;26;20020;-83
2024/04/08 03:06:07;;;;;;;19.65;15.25;;;;;;;;;;2212974;26;20012;-83
2024/04/08 03:07:11;;;;;;;22.63;15.90;;;;;;;;;;2211506;26;20086;-81
2024/04/08 03:08:12;;;;;;;25.38;16.45;;;;;;;;;;2197947;26;20079;-81
2024/04/08 03:09:13;;;;;;;19.52;15.82;;;;;;;;;;2205375;26;20507;-81
2024/04/08 03:10:15;;;;;;;20.83;14.70;;;;;;;;;;2202565;26;20151;-82
2024/04/08 03:11:19;;;;;;;22.00;15.27;;;;;;;;;;2201270;26;20013;-82
2024/04/08 03:12:20;;;;;;;19.67;15.07;;;;;;;;;;2204081;26;20013;-83
2024/04/08 03:13:24;;;;;;;22.52;16.80;;;;;;;;;;2203067;26;20446;-82
2024/04/08 03:14:25;;;;;;;21.20;15.48;;;;;;;;;;2203448;26;20005;-83
2024/04/08 03:15:29;;;;;;;19.67;15.85;;;;;;;;;;2197290;26;20005;-82
2024/04/08 03:16:30;;;;;;;20.50;14.73;;;;;;;;;;2203397;26;20010;-82
2024/04/08 03:17:31;;;;;;;23.90;16.00;;;;;;;;;;2200976;26;20024;-82
2024/04/08 03:18:33;;;;;;;22.65;15.95;;;;;;;;;;2200658;26;20074;-83
2024/04/08 03:19:37;;;;;;;19.55;15.18;;;;;;;;;;2205429;26;20005;-81
2024/04/08 03:20:38;;;;;;;22.08;15.10;;;;;;;;;;2198793;26;20016;-82
2024/04/08 03:21:39;;;;;;;21.75;15.85;;;;;;;;;;2201592;26;20364;-82
2024/04/08 03:22:43;;;;;;;20.55;15.25;;;;;;;;;;2201318;26;20005;-81
2024/04/08 03:23:45;;;;;;;23.42;16.13;;;;;;;;;;2203016;26;20002;-82
2024/04/08 03:24:46;;;;;;;19.67;15.40;;;;;;;;;;2204035;26;20001;-82
2024/04/08 03:25:47;;;;;;;24.33;16.80;;;;;;;;;;2201872;26;20449;-82
2024/04/08 03:26:51;;;;;;;23.40;15.43;;;;;;;;;;2199396;26;20323;-81
2024/04/08 03:27:54;;;;;;;20.48;15.02;;;;;;;;;;2200151;26;20001;-81
2024/04/08 03:28:58;;;;;;;19.95;15.65;;;;;;;;;;2201324;26;20015;-81
2024/04/08 03:30:02;;;;;;;19.38;15.10;;;;;;;;;;2198481;26;20013;-81
2024/04/08 03:31:05;;;;;;;20.63;15.32;;;;;;;;;;2201168;26;20017;-82
2024/04/08 03:32:07;;;;;;;20.15;14.50;;;;;;;;;;2200794;26;20075;-82
2024/04/08 03:33:08;;;;;;;18.83;14.88;;;;;;;;;;2202909;26;20005;-81
2024/04/08 03:34:12;;;;;;;23.25;14.93;;;;;;;;;;2204906;26;20360;-81
2024/04/08 03:35:13;;;;;;;21.52;15.13;;;;;;;;;;2216186;26;20011;-81
2024/04/08 03:36:16;;;;;;;20.75;14.75;;;;;;;;;;2218331;26;20355;-81
2024/04/08 03:37:25;;;;;;;21.42;15.23;;;;;;;;;;2215170;26;20023;-81
2024/04/08 03:38:26;;;;;;;20.20;15.25;;;;;;;;;;2215051;26;20107;-82
2024/04/08 03:39:30;;;;;;;22.45;15.55;;;;;;;;;;2214404;26;20450;-82
2024/04/08 03:40:31;;;;;;;21.00;14.95;;;;;;;;;;2206081;26;20035;-83
2024/04/08 03:41:35;;;;;;;26.50;14.20;;;;;;;;;;2201103;26;20014;-82
2024/04/08 03:42:36;;;;;;;18.02;14.20;;;;;;;;;;2203492;26;20041;-81
2024/04/08 03:43:38;;;;;;;23.42;14.70;;;;;;;;;;2201434;26;20095;-81
2024/04/08 03:44:44;;;;;;;21.55;14.48;;;;;;;;;;2202728;26;20471;-82
2024/04/08 03:45:49;;;;;;;19.67;14.68;;;;;;;;;;2203619;26;20001;-81
2024/04/08 03:46:53;;;;;;;17.83;14.95;;;;;;;;;;2202663;26;20020;-81
2024/04/08 03:47:55;;;;;;;18.23;14.82;;;;;;;;;;2201581;26;20039;-82
2024/04/08 03:49:00;;;;;;;27.05;14.50;;;;;;;;;;2203771;26;20023;-81
2024/04/08 03:50:02;;;;;;;20.40;15.30;;;;;;;;;;2216802;26;20001;-81
2024/04/08 03:51:10;;;;;;;18.48;14.90;;;;;;;;;;2218990;26;20023;-82
2024/04/08 03:52:11;;;;;;;16.52;14.75;;;;;;;;;;2216667;26;20008;-82
2024/04/08 03:53:15;;;;;;;18.58;13.68;;;;;;;;;;2216440;26;20093;-82
2024/04/08 03:54:16;;;;;;;20.88;14.48;;;;;;;;;;2216268;26;20008;-81
2024/04/08 03:55:17;;;;;;;20.30;13.85;;;;;;;;;;2207403;26;20539;-81
2024/04/08 03:56:19;;;;;;;18.30;14.55;;;;;;;;;;2204335;26;20009;-81
2024/04/08 03:57:22;;;;;;;17.80;13.90;;;;;;;;;;2201972;26;20341;-81
2024/04/08 03:58:24;;;;;;;22.25;15.10;;;;;;;;;;2201309;26;20047;-82
2024/04/08 03:59:25;;;;;;;22.65;14.65;;;;;;;;;;2201710;26;20019;-81
2024/04/08 04:00:31;;;;;;;20.67;14.57;;;;;;;;;;2203353;26;20065;-80
2024/04/08 04:01:33;;;;;;;21.05;14.18;;;;;;;;;;2200590;26;19997;-81
2024/04/08 04:02:34;;;;;;;20.33;15.05;;;;;;;;;;2203393;26;20012;-83
2024/04/08 04:03:36;;;;;;;21.95;14.50;;;;;;;;;;2204553;26;20009;-81
2024/04/08 04:04:40;;;;;;;20.33;14.18;;;;;;;;;;2202595;26;20012;-81
2024/04/08 04:05:42;;;;;;;21.45;14.50;;;;;;;;;;2200635;26;20340;-81
2024/04/08 04:06:43;;;;;;;16.35;14.18;;;;;;;;;;2202651;26;20005;-81
2024/04/08 04:07:44;;;;;;;16.95;14.15;;;;;;;;;;2202065;26;20046;-81
2024/04/08 04:08:48;;;;;;;19.45;15.00;;;;;;;;;;2200269;26;20086;-82
2024/04/08 04:09:50;;;;;;;19.65;14.82;;;;;;;;;;2198946;26;20016;-81
2024/04/08 04:10:51;;;;;;;18.23;14.32;;;;;;;;;;2198694;26;20538;-82
2024/04/08 04:11:53;;;;;;;20.73;13.63;;;;;;;;;;2197966;26;20028;-82
2024/04/08 04:12:57;;;;;;;17.95;13.32;;;;;;;;;;2200837;26;20007;-81
2024/04/08 04:13:58;;;;;;;21.50;14.07;;;;;;;;;;2215373;26;20415;-81
2024/04/08 04:15:00;;;;;;;17.02;14.38;;;;;;;;;;2216346;26;20449;-81
2024/04/08 04:16:07;;;;;;;18.38;14.10;;;;;;;;;;2220107;26;20011;-81
2024/04/08 04:17:09;;;;;;;19.70;13.90;;;;;;;;;;2217962;26;20008;-81
2024/04/08 04:18:10;;;;;;;19.25;14.77;;;;;;;;;;2217366;26;20746;-81
2024/04/08 04:19:11;;;;;;;20.55;14.07;;;;;;;;;;2212297;26;20027;-83
2024/04/08 04:20:18;;;;;;;19.05;13.23;;;;;;;;;;2203484;26;20016;-82
2024/04/08 04:21:19;;;;;;;19.45;14.02;;;;;;;;;;2201555;26;20001;-81
2024/04/08 04:22:20;;;;;;;23.05;14.60;;;;;;;;;;2203444;26;20087;-82
2024/04/08 04:23:22;;;;;;;22.10;14.77;;;;;;;;;;2200755;26;20123;-82
2024/04/08 04:24:26;;;;;;;19.00;13.93;;;;;;;;;;2203878;26;20720;-81
2024/04/08 04:25:27;;;;;;;23.42;14.15;;;;;;;;;;2199425;26;20025;-81
2024/04/08 04:26:29;;;;;;;19.90;14.38;;;;;;;;;;2202710;26;20009;-82
2024/04/08 04:27:30;;;;;;;20.88;15.20;;;;;;;;;;2203312;26;20013;-82
2024/04/08 04:28:34;;;;;;;24.50;15.13;;;;;;;;;;2202719;26;20136;-82
2024/04/08 04:29:36;;;;;;;22.63;14.43;;;;;;;;;;2199776;26;20354;-82
2024/04/08 04:30:37;;;;;;;22.80;14.77;;;;;;;;;;2205265;26;20118;-81
2024/04/08 04:31:44;;;;;;;20.77;14.93;;;;;;;;;;2201198;26;20022;-84
2024/04/08 04:32:48;;;;;;;19.05;15.07;;;;;;;;;;2203068;26;20406;-82
2024/04/08 04:33:50;;;;;;;18.60;14.05;;;;;;;;;;2203948;26;20017;-81
2024/04/08 04:34:51;;;;;;;19.33;14.45;;;;;;;;;;2200661;26;20455;-81
2024/04/08 04:35:53;;;;;;;18.98;14.50;;;;;;;;;;2201109;26;20023;-82
2024/04/08 04:36:57;;;;;;;21.10;15.10;;;;;;;;;;2201565;26;20005;-81
2024/04/08 04:37:59;;;;;;;22.55;14.55;;;;;;;;;;2211952;26;20013;-81
2024/04/08 04:39:01;;;;;;;24.05;15.27;;;;;;;;;;2214117;26;20005;-81
2024/04/08 04:40:07;;;;;;;21.33;15.07;;;;;;;;;;2215428;26;20028;-81
2024/04/08 04:41:10;;;;;;;19.70;14.90;;;;;;;;;;2205128;26;20003;-81
2024/04/08 04:42:11;;;;;;;19.75;14.50;;;;;;;;;;2202900;26;20013;-81
2024/04/08 04:43:12;;;;;;;18.02;13.80;;;;;;;;;;2201084;26;20005;-81
2024/04/08 04:44:17;;;;;;;23.00;15.68;;;;;;;;;;2201932;26;20029;-81
2024/04/08 04:45:19;;;;;;;19.70;14.00;;;;;;;;;;2200797;26;20001;-81
2024/04/08 04:46:20;;;;;;;16.73;13.90;;;;;;;;;;2202091;26;20796;-82
2024/04/08 04:47:24;;;;;;;22.48;15.10;;;;;;;;;;2197913;26;20005;-82
2024/04/08 04:48:29;;;;;;;20.13;15.00;;;;;;;;;;2204049;26;20078;-81
2024/04/08 04:49:30;;;;;;;18.33;14.38;;;;;;;;;;2200746;26;20079;-80
2024/04/08 04:50:32;;;;;;;20.20;14.60;;;;;;;;;;2204367;26;20135;-80
2024/04/08 04:51:33;;;;;;;21.20;14.85;;;;;;;;;;2198361;26;20013;-80
2024/04/08 04:52:37;;;;;;;22.48;15.25;;;;;;;;;;2207843;26;20046;-81
2024/04/08 04:53:39;;;;;;;19.75;13.93;;;;;;;;;;2215961;26;20094;-81
2024/04/08 04:54:40;;;;;;;22.52;13.73;;;;;;;;;;2216558;26;20001;-82
2024/04/08 04:55:41;;;;;;;20.90;14.30;;;;;;;;;;2206686;26;20330;-81
2024/04/08 04:56:45;;;;;;;19.83;15.95;;;;;;;;;;2201521;26;20001;-82
2024/04/08 04:57:46;;;;;;;20.52;14.80;;;;;;;;;;2201573;26;20008;-82
2024/04/08 04:58:48;;;;;;;18.50;14.98;;;;;;;;;;2202661;26;20013;-82
2024/04/08 04:59:49;;;;;;;20.60;14.65;;;;;;;;;;2201495;26;20980;-81
2024/04/08 05:00:54;;;;;;;21.02;13.80;;;;;;;;;;2200236;26;20463;-80
2024/04/08 05:01:55;;;;;;;20.60;13.75;;;;;;;;;;2213722;26;20465;-80
2024/04/08 05:02:59;;;;;;;22.05;15.63;;;;;;;;;;2214070;26;20005;-82
2024/04/08 05:04:00;;;;;;;22.80;15.55;;;;;;;;;;2214496;26;20000;-81
2024/04/08 05:05:02;;;;;;;18.45;14.35;;;;;;;;;;2210438;26;20466;-80
2024/04/08 05:06:06;;;;;;;22.75;15.23;;;;;;;;;;2215722;26;20036;-81
2024/04/08 05:07:07;;;;;;;23.55;14.57;;;;;;;;;;2209610;26;20545;-80
2024/04/08 05:08:08;;;;;;;23.25;14.50;;;;;;;;;;2202033;26;20008;-80
2024/04/08 05:09:09;;;;;;;22.10;15.10;;;;;;;;;;2199396;26;20050;-80
2024/04/08 05:10:13;;;;;;;21.38;14.93;;;;;;;;;;2203254;26;20040;-80
2024/04/08 05:11:15;;;;;;;21.02;15.40;;;;;;;;;;2203100;26;20090;-80
2024/04/08 05:12:16;;;;;;;19.15;14.73;;;;;;;;;;2200626;26;20102;-83
2024/04/08 05:13:18;;;;;;;22.73;15.10;;;;;;;;;;2200759;26;20017;-81
2024/04/08 05:14:22;;;;;;;19.15;14.45;;;;;;;;;;2203819;26;20001;-80
2024/04/08 05:15:23;;;;;;;20.20;14.98;;;;;;;;;;2198922;26;20351;-83
2024/04/08 05:16:25;;;;;;;17.80;14.60;;;;;;;;;;2203981;26;20459;-82
2024/04/08 05:17:27;;;;;;;19.80;14.32;;;;;;;;;;2215216;26;20008;-81
2024/04/08 05:18:34;;;;;;;20.38;14.45;;;;;;;;;;2212913;26;20005;-82
2024/04/08 05:19:36;;;;;;;21.00;13.73;;;;;;;;;;2206552;26;20019;-82
2024/04/08 05:20:38;;;;;;;21.08;13.85;;;;;;;;;;2198607;26;20037;-81
2024/04/08 05:21:39;;;;;;;19.67;14.00;;;;;;;;;;2196826;26;20016;-83
2024/04/08 05:22:46;;;;;;;20.58;13.90;;;;;;;;;;2202510;26;20013;-81
2024/04/08 05:23:48;;;;;;;23.02;13.50;;;;;;;;;;2199275;26;20010;-81
2024/04/08 05:24:49;;;;;;;21.90;14.40;;;;;;;;;;2199347;26;20088;-82
2024/04/08 05:25:53;;;;;;;18.02;12.85;;;;;;;;;;2197504;26;20005;-82
2024/04/08 05:26:54;;;;;;;19.00;12.73;;;;;;;;;;2200161;26;20016;-82
2024/04/08 05:27:56;;;;;;;18.35;13.20;;;;;;;;;;2199133;26;20099;-81
2024/04/08 05:28:59;;;;;;;17.33;12.70;;;;;;;;;;2199075;26;20005;-82
2024/04/08 05:30:01;;;;;;;17.60;12.75;;;;;;;;;;2201256;26;20012;-82
2024/04/08 05:31:02;;;;;;;16.60;12.88;;;;;;;;;;2200830;26;20009;-81
2024/04/08 05:32:04;;;;;;;22.70;13.43;;;;;;;;;;2203043;26;20010;-80
2024/04/08 05:33:08;;;;;;;18.38;13.88;;;;;;;;;;2200932;26;21093;-81
2024/04/08 05:34:12;;;;;;;22.63;13.30;;;;;;;;;;2201488;26;20166;-81
2024/04/08 05:35:14;;;;;;;19.15;12.82;;;;;;;;;;2201331;26;20418;-81
2024/04/08 05:36:15;;;;;;;19.90;13.70;;;;;;;;;;2200344;26;20013;-81
2024/04/08 05:37:19;;;;;;;17.70;12.40;;;;;;;;;;2201631;26;20005;-81
2024/04/08 05:38:20;;;;;;;17.55;12.27;;;;;;;;;;2202350;26;20406;-81
2024/04/08 05:39:22;;;;;;;17.05;13.27;;;;;;;;;;2204855;26;20023;-80
2024/04/08 05:40:23;;;;;;;17.90;13.32;;;;;;;;;;2205137;26;20016;-82
2024/04/08 05:41:27;;;;;;;21.58;13.30;;;;;;;;;;2199019;26;20002;-82
2024/04/08 05:42:28;;;;;;;14.88;12.32;;;;;;;;;;2199991;26;20035;-82
2024/04/08 05:43:31;;;;;;;20.17;13.13;;;;;;;;;;2200070;26;20024;-83
2024/04/08 05:44:32;;;;;;;20.20;14.35;;;;;;;;;;2201432;26;20009;-83
2024/04/08 05:45:36;;;;;;;24.40;14.43;;;;;;;;;;2200638;26;20012;-84
2024/04/08 05:46:38;;;;;;;17.75;13.10;;;;;;;;;;2200703;26;20021;-81
2024/04/08 05:47:39;;;;;;;20.45;13.85;;;;;;;;;;2202538;26;20001;-81
2024/04/08 05:48:40;;;;;;;21.95;13.68;;;;;;;;;;2203733;26;20020;-79
2024/04/08 05:49:47;;;;;;;18.60;13.25;;;;;;;;;;2201627;26;20001;-80
2024/04/08 05:50:48;;;;;;;20.05;14.23;;;;;;;;;;2201725;26;20047;-79
2024/04/08 05:51:50;;;;;;;21.88;13.77;;;;;;;;;;2202656;26;20106;-80
2024/04/08 05:52:51;;;;;;;17.50;14.07;;;;;;;;;;2200893;26;20029;-80
2024/04/08 05:53:55;;;;;;;20.88;13.35;;;;;;;;;;2201288;26;20090;-80
2024/04/08 05:54:56;;;;;;;17.13;12.80;;;;;;;;;;2201481;26;20010;-80
2024/04/08 05:55:58;;;;;;;20.75;13.70;;;;;;;;;;2206573;26;20009;-80
2024/04/08 05:56:59;;;;;;;20.83;13.98;;;;;;;;;;2205425;26;20008;-82
2024/04/08 05:58:04;;;;;;;18.02;13.60;;;;;;;;;;2208538;26;20354;-78
2024/04/08 05:59:05;;;;;;;20.73;12.85;;;;;;;;;;2203075;26;20016;-81
2024/04/08 06:00:07;;;;;;;16.40;12.63;;;;;;;;;;2200784;26;20717;-81
2024/04/08 06:01:09;;;;;;;17.70;13.00;;;;;;;;;;2201987;26;20013;-81
2024/04/08 06:02:13;;;;;;;16.83;12.88;;;;;;;;;;2217526;26;20000;-81
2024/04/08 06:03:14;;;;;;;15.52;12.38;;;;;;;;;;2214789;26;20012;-81